createdAt,value
2023-01-10T05:49:27.444Z,100524.11
2023-01-10T05:50:30.472Z,100529.77
2023-01-10T05:51:34.807Z,100519.64
2023-01-10T05:52:37.244Z,100521.05
2023-01-10T05:53:39.637Z,100525.09
2023-01-10T05:54:42.318Z,100523.66
2023-01-10T05:55:46.838Z,100511.70
2023-01-10T05:56:50.001Z,100511.98
2023-01-10T05:57:52.453Z,100516.75
2023-01-10T05:59:05.296Z,100536.62
2023-01-10T05:59:59.396Z,100513.86
2023-01-10T06:01:02.594Z,100523.94
2023-01-10T06:02:05.554Z,100535.87
2023-01-10T06:03:08.024Z,100536.24
2023-01-10T06:04:10.378Z,100539.27
2023-01-10T06:05:13.050Z,100540.61
2023-01-10T06:06:16.977Z,100544.62
2023-01-10T06:07:19.869Z,100537.01
2023-01-10T06:08:22.807Z,100542.83
2023-01-10T06:09:25.519Z,100541.56
2023-01-10T06:10:28.540Z,100548.27
2023-01-10T06:11:33.817Z,100552.34
2023-01-10T06:12:38.147Z,100557.27
2023-01-10T06:13:40.506Z,100556.11
2023-01-10T06:14:43.311Z,100546.91
2023-01-10T06:15:45.760Z,100555.47
2023-01-10T06:16:48.404Z,100551.61
2023-01-10T06:17:50.937Z,100545.16
2023-01-10T06:18:53.438Z,100558.30
2023-01-10T06:19:55.767Z,100558.03
2023-01-10T06:20:58.620Z,100544.41
2023-01-10T06:22:01.164Z,100549.53
2023-01-10T06:23:04.322Z,100544.86
2023-01-10T06:24:07.846Z,100550.92
2023-01-10T06:25:11.202Z,100556.00
2023-01-10T06:26:14.406Z,100567.50
2023-01-10T06:27:16.834Z,100552.13
2023-01-10T06:28:19.171Z,100568.97
2023-01-10T06:29:21.642Z,100563.45
2023-01-10T06:30:24.817Z,100558.86
2023-01-10T06:31:27.447Z,100573.88
2023-01-10T06:32:30.279Z,100571.12
2023-01-10T06:33:32.882Z,100572.77
2023-01-10T06:34:35.205Z,100573.56
2023-01-10T06:35:37.718Z,100568.98
2023-01-10T06:36:40.154Z,100572.45
2023-01-10T06:37:42.576Z,100567.04
2023-01-10T06:38:46.491Z,100569.63
2023-01-10T06:39:51.187Z,100574.04
2023-01-10T06:40:55.047Z,100579.30
2023-01-10T06:41:58.165Z,100580.06
2023-01-10T06:47:11.584Z,100575.42
2023-01-10T06:50:20.143Z,100581.53
2023-01-10T06:51:22.646Z,100582.41
2023-01-10T06:52:25.012Z,100579.73
2023-01-10T06:53:29.374Z,100587.67
2023-01-10T06:54:31.792Z,100586.70
2023-01-10T06:55:34.194Z,100588.53
2023-01-10T06:56:37.408Z,100592.05
2023-01-10T06:58:42.158Z,100590.27
2023-01-10T06:59:44.862Z,100590.27
2023-01-10T07:00:47.459Z,100585.77
2023-01-10T07:04:58.970Z,100580.32
2023-01-10T07:06:02.265Z,100598.11
2023-01-10T07:07:04.839Z,100595.44
2023-01-10T07:08:07.531Z,100600.79
2023-01-10T07:09:10.728Z,100599.84
2023-01-10T07:10:13.897Z,100602.61
2023-01-10T07:11:17.179Z,100608.73
2023-01-10T07:12:19.627Z,100608.73
2023-01-10T07:13:22.077Z,100607.88
2023-01-10T07:14:24.808Z,100610.55
2023-01-10T07:15:27.641Z,100610.55
2023-01-10T07:16:31.017Z,100618.49
2023-01-10T07:17:33.569Z,100617.64
2023-01-10T07:18:38.526Z,100618.49
2023-01-10T07:19:41.973Z,100617.64
2023-01-10T07:20:45.063Z,100623.84
2023-01-10T07:21:48.246Z,100615.81
2023-01-10T07:24:02.443Z,100617.55
2023-01-10T07:25:06.168Z,100623.84
2023-01-10T07:26:10.648Z,100613.14
2023-01-10T07:27:13.126Z,100620.23
2023-01-10T07:28:15.751Z,100623.75
2023-01-10T07:29:18.637Z,100622.91
2023-01-10T07:30:24.983Z,100622.91
2023-01-10T07:31:26.863Z,100608.64
2023-01-10T07:32:29.746Z,100622.91
2023-01-10T07:33:32.793Z,100631.88
2023-01-10T07:34:35.625Z,100630.93
2023-01-10T07:35:39.065Z,100629.11
2023-01-10T07:36:42.181Z,100623.84
2023-01-10T13:01:54.138Z,100708.28
2023-01-10T13:02:59.549Z,100702.85
2023-01-10T13:04:05.226Z,100701.06
2023-01-10T13:05:08.504Z,100702.77
2023-01-10T13:06:25.141Z,100697.34
2023-01-10T13:07:31.488Z,100696.33
2023-01-10T13:08:34.749Z,100707.81
2023-01-10T13:09:38.363Z,100700.48
2023-01-10T13:12:19.432Z,100702.36
2023-01-10T13:13:38.510Z,100700.96
2023-01-10T13:14:46.216Z,100695.53
2023-01-10T13:16:07.645Z,100703.50
2023-01-10T13:17:31.150Z,100706.86
2023-01-10T13:18:34.288Z,100696.16
2023-01-10T13:19:37.148Z,100699.64
2023-01-10T13:20:41.087Z,100679.95
2023-01-10T13:21:45.264Z,100697.73
2023-01-10T13:22:51.903Z,100702.14
2023-01-10T13:24:00.697Z,100699.39
2023-01-10T13:25:04.368Z,100701.13
2023-01-10T13:26:11.075Z,100697.48
2023-01-10T13:27:17.199Z,100697.42
2023-01-10T13:28:23.644Z,100699.13
2023-01-10T13:29:32.125Z,100705.37
2023-01-10T13:30:39.342Z,100705.28
2023-01-10T13:31:41.865Z,100699.85
2023-01-10T13:32:46.585Z,100705.12
2023-01-10T13:33:52.422Z,100699.68
2023-01-10T13:34:55.410Z,100696.92
2023-01-10T13:36:08.782Z,100705.83
2023-01-10T13:37:24.938Z,100708.34
2023-01-10T13:38:46.167Z,100708.34
2023-01-10T13:39:55.177Z,100710.08
2023-01-10T13:41:06.011Z,100705.58
2023-01-10T13:42:28.733Z,100719.80
2023-01-10T13:43:35.788Z,100706.43
2023-01-10T13:45:02.698Z,100709.10
2023-01-10T13:46:21.291Z,100707.31
2023-01-10T13:47:43.665Z,100707.45
2023-01-10T13:48:52.669Z,100708.25
2023-01-10T13:49:55.389Z,100714.54
2023-01-10T13:51:09.521Z,100710.12
2023-01-10T13:52:28.407Z,100713.60
2023-01-10T13:53:36.792Z,100709.19
2023-01-10T13:54:39.147Z,100712.75
2023-01-10T13:55:49.804Z,100711.86
2023-01-10T13:56:53.428Z,100711.86
2023-01-10T13:57:58.174Z,100702.98
2023-01-10T13:59:22.384Z,100711.78
2023-01-10T14:00:53.323Z,100711.86
2023-01-10T14:03:50.687Z,100701.48
2023-01-10T14:04:54.957Z,100699.42
2023-01-10T14:05:58.917Z,100699.52
2023-01-10T14:08:37.839Z,100703.39
2023-01-10T14:09:44.771Z,100695.90
2023-01-10T14:10:47.496Z,100700.31
2023-01-10T14:13:11.799Z,100701.34
2023-01-10T14:15:33.675Z,100695.83
2023-01-10T14:16:38.867Z,100703.39
2023-01-10T14:17:42.187Z,100699.78
2023-01-10T14:18:45.638Z,100699.70
2023-01-10T14:19:50.145Z,100698.72
2023-01-10T14:21:06.963Z,100696.05
2023-01-10T14:22:27.694Z,100700.46
2023-01-10T14:23:40.620Z,100699.52
2023-01-10T14:24:44.816Z,100699.61
2023-01-10T14:25:53.187Z,100706.75
2023-01-10T14:27:00.155Z,100707.72
2023-01-10T14:28:03.230Z,100712.27
2023-01-10T14:30:33.661Z,100711.87
2023-01-10T14:31:38.840Z,100716.91
2023-01-10T14:32:43.238Z,100707.23
2023-01-10T14:33:45.682Z,100706.52
2023-01-10T14:34:49.090Z,100703.07
2023-01-10T14:35:54.479Z,100707.70
2023-01-10T14:37:07.313Z,100706.94
2023-01-10T14:39:26.037Z,100705.49
2023-01-10T14:40:34.788Z,100711.48
2023-01-10T14:41:38.972Z,100713.31
2023-01-10T14:42:41.873Z,100707.08
2023-01-10T14:43:56.960Z,100701.73
2023-01-10T14:45:06.217Z,100701.73
2023-01-10T14:47:42.378Z,100720.83
2023-01-10T14:48:51.769Z,100723.20
2023-01-10T14:50:04.160Z,100704.48
2023-01-10T14:51:13.483Z,100725.03
2023-01-10T14:52:22.308Z,100718.83
2023-01-10T14:53:27.299Z,100708.13
2023-01-10T14:54:30.376Z,100700.16
2023-01-10T14:55:33.843Z,100699.30
2023-01-10T14:56:38.461Z,100702.83
2023-01-10T14:57:43.270Z,100715.27
2023-01-10T14:58:46.426Z,100702.83
2023-01-10T14:59:54.816Z,100717.09
2023-01-10T15:00:57.353Z,100718.83
2023-01-10T15:03:47.005Z,100712.97
2023-01-10T15:06:09.651Z,100705.03
2023-01-10T15:07:15.621Z,100717.17
2023-01-10T15:08:28.177Z,100714.58
2023-01-10T15:09:31.429Z,100717.25
2023-01-10T15:10:37.068Z,100717.25
2023-01-10T15:11:41.240Z,100719.04
2023-01-10T15:12:44.946Z,100702.14
2023-01-10T15:13:50.373Z,100716.37
2023-01-10T15:15:05.371Z,100721.80
2023-01-10T15:16:14.661Z,100720.86
2023-01-10T15:17:20.552Z,100716.45
2023-01-10T15:18:44.038Z,100717.39
2023-01-10T15:19:47.926Z,100726.30
2023-01-10T15:20:51.939Z,100713.78
2023-01-10T15:21:55.741Z,100711.10
2023-01-10T15:23:00.399Z,100713.86
2023-01-10T15:24:04.226Z,100712.04
2023-01-10T15:25:25.011Z,100716.53
2023-01-10T15:26:28.983Z,100695.06
2023-01-10T15:27:33.990Z,100710.25
2023-01-10T15:28:38.615Z,100715.59
2023-01-10T15:29:46.492Z,100727.23
2023-01-10T15:30:49.087Z,100724.55
2023-01-10T15:31:56.786Z,100726.30
2023-01-10T15:33:05.095Z,100729.91
2023-01-10T15:34:09.741Z,100737.93
2023-01-10T15:35:17.910Z,100727.31
2023-01-10T15:36:18.877Z,100741.53
2023-01-10T15:37:27.359Z,100735.34
2023-01-10T15:38:31.605Z,100738.86
2023-01-10T15:39:37.005Z,100731.73
2023-01-10T15:40:40.941Z,100745.09
2023-01-10T15:41:43.402Z,100747.77
2023-01-10T15:42:45.911Z,100751.30
2023-01-10T15:43:49.668Z,100733.44
2023-01-10T15:44:53.487Z,100735.17
2023-01-10T15:45:56.959Z,100735.00
2023-01-10T15:46:59.477Z,100740.27
2023-01-10T15:48:04.941Z,100730.45
2023-01-10T15:49:16.515Z,100729.52
2023-01-10T15:51:47.456Z,100725.07
2023-01-10T15:52:54.899Z,100732.72
2023-01-10T15:54:06.568Z,100725.58
2023-01-10T15:55:42.847Z,100729.02
2023-01-10T23:13:30.923Z,100971.88
2023-01-10T23:14:33.587Z,100978.30
2023-01-10T23:15:36.019Z,100984.27
2023-01-10T23:16:38.843Z,100979.48
2023-01-10T23:17:42.653Z,100980.00
2023-01-10T23:18:46.202Z,100970.64
2023-01-10T23:19:49.827Z,100981.72
2023-01-10T23:20:55.449Z,100976.78
2023-01-10T23:21:57.874Z,100983.38
2023-01-10T23:23:01.192Z,100978.41
2023-01-10T23:24:05.522Z,100968.17
2023-01-10T23:25:09.608Z,100973.43
2023-01-10T23:26:12.783Z,100973.43
2023-01-10T23:27:15.148Z,100965.80
2023-01-10T23:28:17.611Z,100976.03
2023-01-10T23:29:20.407Z,100970.30
2023-01-10T23:30:24.992Z,100972.59
2023-01-10T23:31:31.285Z,100972.16
2023-01-10T23:32:33.775Z,100962.02
2023-01-10T23:33:36.974Z,100970.55
2023-01-10T23:34:39.398Z,100966.48
2023-01-10T23:35:41.806Z,100966.48
2023-01-10T23:36:44.884Z,100975.80
2023-01-10T23:37:47.656Z,100978.21
2023-01-10T23:38:50.889Z,100978.80
2023-01-10T23:39:53.311Z,100981.21
2023-01-10T23:40:55.611Z,100978.31
2023-01-10T23:41:58.580Z,100989.67
2023-01-10T23:43:00.916Z,100985.91
2023-01-10T23:44:03.884Z,100984.76
2023-01-10T23:45:07.924Z,100984.61
2023-01-10T23:46:11.079Z,100984.30
2023-01-10T23:47:17.835Z,100992.20
2023-01-10T23:48:20.418Z,100989.37
2023-01-10T23:49:23.418Z,100995.43
2023-01-10T23:50:27.004Z,101001.52
2023-01-10T23:51:30.344Z,100996.02
2023-01-10T23:52:33.043Z,100995.00
2023-01-10T23:53:35.572Z,100996.66
2023-01-10T23:54:39.097Z,100991.16
2023-01-10T23:55:42.506Z,100991.97
2023-01-10T23:56:45.459Z,100989.14
2023-01-10T23:57:48.694Z,100994.41
2023-01-10T23:58:52.065Z,100992.47
2023-01-10T23:59:55.511Z,100988.86
